createdAt,value
2022-12-04T00:07:29.621Z,0.7
2022-12-04T00:22:06.918Z,0.8
2022-12-04T00:36:40.047Z,1
2022-12-04T00:51:13.201Z,0.7
2022-12-04T01:05:48.833Z,0.7
2022-12-04T01:20:20.835Z,0.6
2022-12-04T01:34:54.028Z,0.8
2022-12-04T01:49:20.855Z,0.1
2022-12-04T02:03:58.244Z,0.5
2022-12-04T02:18:20.748Z,0.6
2022-12-04T02:32:57.632Z,0.2
2022-12-04T02:47:24.928Z,-0.1
2022-12-04T03:01:57.040Z,0.1
2022-12-04T03:16:28.065Z,-0.1
2022-12-04T03:30:59.390Z,0.3
2022-12-04T03:45:30.360Z,0
2022-12-04T04:00:03.829Z,0.2
2022-12-04T04:14:33.100Z,-0.2
2022-12-04T04:29:03.680Z,0.2
2022-12-04T04:43:35.526Z,0.1
2022-12-04T04:58:06.023Z,0.3
2022-12-04T05:12:35.677Z,-0.1
2022-12-04T05:27:06.057Z,0
2022-12-04T05:41:37.383Z,0.1
2022-12-04T05:56:14.602Z,0.1
2022-12-04T06:10:48.432Z,-0.1
2022-12-04T06:25:15.900Z,0.3
2022-12-04T06:39:47.839Z,0
2022-12-04T06:54:19.332Z,0.1
2022-12-04T07:08:50.830Z,0.1
2022-12-04T07:23:27.592Z,0.3
2022-12-04T07:38:00.332Z,0.6
2022-12-04T07:52:27.748Z,0.8
2022-12-04T08:06:59.557Z,0.8
2022-12-04T08:21:31.154Z,0.9
2022-12-04T08:36:02.007Z,0.8
2022-12-04T08:50:30.910Z,0.9
2022-12-04T09:05:03.731Z,1
2022-12-04T09:19:34.957Z,0.8
2022-12-04T09:34:05.335Z,1
2022-12-04T09:48:36.481Z,1.3
2022-12-04T10:03:09.805Z,1.4
2022-12-04T10:17:41.377Z,1.3
2022-12-04T10:32:12.080Z,1.7
2022-12-04T10:46:47.494Z,1.8
2022-12-04T11:01:14.865Z,1.9
2022-12-04T11:15:52.078Z,1.8
2022-12-04T11:30:20.023Z,1.9
2022-12-04T11:44:51.385Z,2.2
2022-12-04T11:59:23.092Z,2
2022-12-04T12:13:54.330Z,2
2022-12-04T12:28:25.886Z,2.3
2022-12-04T12:42:59.451Z,2.1
2022-12-04T12:57:29.468Z,2.3
2022-12-04T13:12:00.889Z,2
2022-12-04T13:26:32.005Z,2.1
2022-12-04T13:41:03.485Z,2.1
2022-12-04T13:55:33.652Z,2.4
2022-12-04T14:10:04.478Z,2
2022-12-04T14:24:36.111Z,2.3
2022-12-04T14:39:13.079Z,2.2
2022-12-04T14:53:47.007Z,2.4
2022-12-04T15:08:15.514Z,2.4
2022-12-04T15:22:48.070Z,2.5
2022-12-04T15:37:19.505Z,2.6
2022-12-04T15:51:57.176Z,2.8
2022-12-04T16:06:30.651Z,3
2022-12-04T16:20:59.459Z,3
2022-12-04T16:35:29.975Z,3.1
2022-12-04T16:50:00.258Z,3
2022-12-04T17:04:30.495Z,3.3
2022-12-04T17:19:01.577Z,3.2
2022-12-04T17:33:37.972Z,3.3
2022-12-04T17:48:10.830Z,3.3
2022-12-04T18:02:39.605Z,3.2
2022-12-04T18:17:13.771Z,3.3
2022-12-04T18:31:48.331Z,3.4
2022-12-04T18:46:17.969Z,3.3
2022-12-04T19:00:45.791Z,3.3
2022-12-04T19:15:17.261Z,3.4
2022-12-04T19:29:56.757Z,3.3
2022-12-04T19:44:50.498Z,3.2
2022-12-04T19:59:07.286Z,3.2
2022-12-04T20:13:39.419Z,3.3
2022-12-04T20:28:15.128Z,3.5
2022-12-04T20:42:43.644Z,3.4
2022-12-04T20:57:13.444Z,3.4
2022-12-04T21:11:44.943Z,3.5
2022-12-04T21:26:16.613Z,3.3
2022-12-04T21:40:48.670Z,3.6
2022-12-04T21:55:19.445Z,3.7
2022-12-04T22:09:50.846Z,3.6
2022-12-04T22:24:28.559Z,3.6
2022-12-04T22:39:11.774Z,3.6
2022-12-04T22:53:36.555Z,3.8
2022-12-04T23:08:07.869Z,3.7
2022-12-04T23:22:39.354Z,3.9
2022-12-04T23:37:10.016Z,3.8
2022-12-04T23:51:40.869Z,3.8
